Time;durP1;ratioP1;P1;durP2;ratioP2;P2;SDS_P1;SDS_P2;PMS_P1;PMS_P2;Temp;Humidity;BMP_temperature;BMP_pressure;BME280_temperature;BME280_humidity;BME280_pressure;Samples;Min_cycle;Max_cycle;Signal;HPM_P1;HPM_P2
2023/12/16 00:00:30;;;;;;;1.77;1.40;;;;;;;3.52;75.06;95764.16;4988276;28;20353;-69
2023/12/16 00:02:56;;;;;;;1.50;1.40;;;;;;;3.35;75.40;95768.69;5002533;28;20234;-71
2023/12/16 00:05:22;;;;;;;1.53;1.43;;;;;;;3.38;75.42;95765.91;4985587;28;20224;-74
2023/12/16 00:07:47;;;;;;;2.30;1.10;;;;;;;3.50;75.12;95768.63;4970839;28;20272;-74
2023/12/16 00:10:13;;;;;;;2.70;1.30;;;;;;;3.64;74.88;95777.38;4997038;28;20229;-75
2023/12/16 00:12:39;;;;;;;2.37;0.90;;;;;;;3.68;74.78;95776.25;4969197;28;20219;-74
2023/12/16 00:15:05;;;;;;;1.43;0.70;;;;;;;3.72;74.17;95780.34;4968658;28;20235;-75
2023/12/16 00:17:31;;;;;;;0.80;0.80;;;;;;;3.62;74.12;95781.81;4992734;28;20290;-74
2023/12/16 00:19:56;;;;;;;1.43;0.90;;;;;;;3.72;73.80;95795.97;4984124;28;20191;-73
2023/12/16 00:22:21;;;;;;;0.97;0.90;;;;;;;3.75;73.98;95790.56;4991528;28;20203;-74
2023/12/16 00:24:47;;;;;;;1.67;1.10;;;;;;;3.69;74.08;95788.34;4992121;28;20218;-74
2023/12/16 00:27:12;;;;;;;1.20;0.90;;;;;;;3.73;73.65;95798.44;4988660;28;20215;-74
2023/12/16 00:29:38;;;;;;;1.00;0.90;;;;;;;3.81;72.97;95800.59;4987991;28;20246;-74
2023/12/16 00:32:03;;;;;;;0.83;0.70;;;;;;;3.82;72.53;95804.03;4978227;28;20192;-73
2023/12/16 00:34:33;;;;;;;1.53;1.10;;;;;;;3.66;73.46;95811.91;4992332;28;20294;-74
2023/12/16 00:36:58;;;;;;;0.93;0.90;;;;;;;3.71;73.73;95804.66;4970930;28;20227;-74
2023/12/16 00:39:24;;;;;;;2.17;0.70;;;;;;;3.76;73.44;95810.44;4965154;28;20323;-74
2023/12/16 00:41:49;;;;;;;1.13;1.00;;;;;;;3.76;73.17;95820.84;4979584;28;20235;-73
2023/12/16 00:44:15;;;;;;;1.10;1.00;;;;;;;3.76;73.22;95807.84;4991491;28;20238;-74
2023/12/16 00:46:40;;;;;;;0.80;0.80;;;;;;;3.66;73.43;95814.50;4992706;28;20191;-74
2023/12/16 00:49:05;;;;;;;1.10;1.00;;;;;;;3.63;73.39;95825.91;4975547;28;20250;-73
2023/12/16 00:51:31;;;;;;;0.90;0.90;;;;;;;3.78;72.76;95825.97;4983191;28;20261;-74
2023/12/16 00:53:57;;;;;;;0.90;0.90;;;;;;;3.68;73.18;95826.50;5004630;28;20222;-74
2023/12/16 00:56:22;;;;;;;0.90;0.90;;;;;;;3.64;72.81;95824.19;4984943;28;20254;-74
2023/12/16 00:58:48;;;;;;;1.00;0.80;;;;;;;3.57;73.00;95825.47;4987614;28;20183;-73
2023/12/16 01:01:14;;;;;;;1.30;1.20;;;;;;;3.64;73.03;95832.00;4987643;28;20230;-73
2023/12/16 01:03:40;;;;;;;1.73;1.63;;;;;;;3.54;73.47;95823.88;4984366;28;20221;-72
2023/12/16 01:06:06;;;;;;;1.10;1.00;;;;;;;3.51;73.10;95834.47;4988727;28;20231;-74
2023/12/16 01:08:33;;;;;;;0.90;0.83;;;;;;;3.40;73.61;95836.84;4981527;28;20224;-73
2023/12/16 01:10:59;;;;;;;1.07;0.80;;;;;;;3.30;73.90;95846.91;4975710;28;20199;-73
2023/12/16 01:13:24;;;;;;;1.37;1.00;;;;;;;3.57;73.54;95834.09;4990812;28;20187;-73
2023/12/16 01:15:50;;;;;;;0.87;0.87;;;;;;;3.31;73.73;95843.38;4985313;28;20263;-73
2023/12/16 01:18:16;;;;;;;0.80;0.80;;;;;;;3.52;73.90;95826.56;4984655;28;20258;-74
2023/12/16 01:20:41;;;;;;;0.80;0.80;;;;;;;3.50;73.93;95837.97;4984737;28;20257;-73
2023/12/16 01:23:07;;;;;;;1.03;1.00;;;;;;;3.52;73.53;95831.75;4986694;28;20314;-73
2023/12/16 01:25:32;;;;;;;0.83;0.83;;;;;;;3.57;73.26;95841.06;4997099;28;20253;-74
2023/12/16 01:27:58;;;;;;;0.80;0.80;;;;;;;3.57;73.02;95835.84;4986581;28;20215;-74
2023/12/16 01:30:24;;;;;;;0.97;0.87;;;;;;;3.59;73.28;95844.41;4989667;28;20224;-73
2023/12/16 01:32:51;;;;;;;0.60;0.60;;;;;;;3.56;73.35;95844.59;4989844;28;20227;-73
2023/12/16 01:35:16;;;;;;;0.97;0.90;;;;;;;3.57;73.00;95847.09;4979551;28;20279;-73
2023/12/16 01:37:42;;;;;;;1.50;0.80;;;;;;;3.60;73.20;95843.47;4963652;28;20184;-73
2023/12/16 01:40:08;;;;;;;1.00;1.00;;;;;;;3.52;73.21;95847.34;4975568;28;20237;-73
2023/12/16 01:42:33;;;;;;;0.70;0.70;;;;;;;3.43;73.58;95841.88;4964108;28;20251;-72
2023/12/16 01:44:59;;;;;;;1.00;0.70;;;;;;;3.44;73.88;95848.72;4964985;28;20255;-72
2023/12/16 01:47:25;;;;;;;1.03;0.70;;;;;;;3.48;73.36;95858.03;4974653;28;20230;-71
2023/12/16 01:49:51;;;;;;;0.73;0.70;;;;;;;3.52;73.40;95855.16;4973028;28;20195;-72
2023/12/16 01:52:17;;;;;;;1.03;0.73;;;;;;;3.45;73.89;95848.66;4972111;28;20279;-73
2023/12/16 01:54:44;;;;;;;0.63;0.63;;;;;;;3.31;73.98;95865.03;4966133;28;20232;-73
2023/12/16 01:57:10;;;;;;;0.80;0.73;;;;;;;3.34;73.93;95858.81;4972042;28;20235;-73
2023/12/16 01:59:35;;;;;;;1.40;1.07;;;;;;;3.47;73.58;95864.97;4964328;28;20216;-73
2023/12/16 02:02:03;;;;;;;0.80;0.80;;;;;;;3.34;73.57;95858.81;4960968;28;20216;-73
2023/12/16 02:04:28;;;;;;;0.77;0.77;;;;;;;3.35;74.56;95867.47;4967361;28;20195;-73
2023/12/16 02:06:54;;;;;;;0.77;0.70;;;;;;;3.25;74.59;95867.97;4970509;28;20282;-73
2023/12/16 02:09:20;;;;;;;0.80;0.70;;;;;;;3.30;74.71;95875.50;4975659;28;20314;-73
2023/12/16 02:11:45;;;;;;;0.70;0.70;;;;;;;3.25;74.88;95869.72;4995076;28;20334;-73
2023/12/16 02:14:11;;;;;;;0.73;0.73;;;;;;;3.23;74.86;95862.00;4985468;28;20199;-73
2023/12/16 02:16:37;;;;;;;0.70;0.70;;;;;;;3.33;74.85;95870.13;4983888;28;20253;-73
2023/12/16 02:19:09;;;;;;;0.80;0.60;;;;;;;3.30;74.90;95868.53;4982622;28;20251;-73
2023/12/16 02:21:34;;;;;;;0.70;0.70;;;;;;;3.35;75.00;95868.28;4982136;28;20274;-73
2023/12/16 02:23:59;;;;;;;0.50;0.50;;;;;;;3.27;74.90;95873.09;4985549;28;20301;-73
2023/12/16 02:26:25;;;;;;;0.80;0.80;;;;;;;3.24;74.68;95879.28;4987750;28;20232;-73
2023/12/16 02:28:50;;;;;;;0.87;0.80;;;;;;;3.18;75.13;95884.84;4983266;28;20188;-73
2023/12/16 02:31:16;;;;;;;0.60;0.60;;;;;;;3.29;75.18;95887.69;4987673;28;20225;-74
2023/12/16 02:33:41;;;;;;;0.50;0.50;;;;;;;3.30;75.11;95888.50;4964233;28;20230;-73
2023/12/16 02:36:07;;;;;;;0.70;0.70;;;;;;;3.25;75.42;95885.31;4984947;28;20214;-73
2023/12/16 02:38:32;;;;;;;0.77;0.70;;;;;;;3.25;75.58;95890.53;4990393;28;20430;-73
2023/12/16 02:40:58;;;;;;;0.70;0.70;;;;;;;3.30;74.61;95888.50;4986742;28;20190;-74
2023/12/16 02:43:23;;;;;;;0.63;0.63;;;;;;;3.23;74.88;95893.19;4990752;28;20212;-74
2023/12/16 02:45:48;;;;;;;1.50;0.90;;;;;;;3.35;74.38;95902.09;4984210;28;20230;-73
2023/12/16 02:48:14;;;;;;;0.87;0.77;;;;;;;3.38;74.16;95914.91;4988359;28;20227;-74
2023/12/16 02:50:39;;;;;;;0.77;0.70;;;;;;;3.24;74.85;95913.09;4983201;28;20230;-73
2023/12/16 02:53:06;;;;;;;0.87;0.70;;;;;;;3.25;74.48;95911.31;4986403;28;20283;-74
2023/12/16 02:55:32;;;;;;;1.07;0.90;;;;;;;3.29;74.51;95918.88;4975418;28;20275;-72
2023/12/16 02:57:57;;;;;;;0.60;0.60;;;;;;;3.30;74.39;95927.50;4970836;28;20307;-73
2023/12/16 03:00:23;;;;;;;1.23;0.77;;;;;;;3.43;73.92;95925.88;4978717;28;20229;-73
2023/12/16 03:02:48;;;;;;;0.80;0.80;;;;;;;3.35;73.66;95929.84;4989731;28;20326;-73
2023/12/16 03:05:13;;;;;;;0.97;0.87;;;;;;;3.20;74.12;95932.34;4987854;28;20235;-73
2023/12/16 03:07:39;;;;;;;0.77;0.77;;;;;;;3.25;74.64;95929.50;4996284;28;20193;-74
2023/12/16 03:10:05;;;;;;;0.77;0.70;;;;;;;3.20;74.58;95932.34;4987770;28;20230;-74
2023/12/16 03:12:31;;;;;;;0.70;0.70;;;;;;;3.06;75.14;95930.53;4972279;28;20230;-74
2023/12/16 03:14:57;;;;;;;0.83;0.80;;;;;;;3.24;74.97;95940.84;4971471;28;20291;-74
2023/12/16 03:17:22;;;;;;;0.77;0.73;;;;;;;3.31;74.92;95931.75;4959971;28;20290;-74
2023/12/16 03:19:48;;;;;;;1.33;0.70;;;;;;;3.21;74.63;95935.81;4964663;28;20225;-73
2023/12/16 03:22:13;;;;;;;0.70;0.60;;;;;;;3.15;75.07;95928.34;4994592;28;20227;-72
2023/12/16 03:24:39;;;;;;;0.93;0.60;;;;;;;2.97;75.57;95935.41;4973640;28;20227;-72
2023/12/16 03:27:04;;;;;;;0.80;0.70;;;;;;;3.22;75.23;95942.69;4973124;28;20322;-73
2023/12/16 03:29:31;;;;;;;0.70;0.70;;;;;;;3.22;74.75;95943.50;4985754;28;20254;-73
2023/12/16 03:31:57;;;;;;;0.73;0.73;;;;;;;3.31;74.65;95948.22;4982617;28;20233;-72
2023/12/16 03:34:22;;;;;;;0.80;0.80;;;;;;;3.16;74.37;95949.06;4987605;28;20215;-74
2023/12/16 03:36:48;;;;;;;0.70;0.70;;;;;;;3.16;74.45;95948.22;4982026;28;20223;-74
2023/12/16 03:39:13;;;;;;;0.80;0.80;;;;;;;3.23;74.28;95959.94;4988045;28;20219;-74
2023/12/16 03:41:39;;;;;;;1.03;0.90;;;;;;;3.23;74.50;95957.34;4981221;28;20231;-75
2023/12/16 03:44:04;;;;;;;0.73;0.73;;;;;;;3.09;74.53;95953.72;4986844;28;20226;-74
2023/12/16 03:46:30;;;;;;;1.97;1.23;;;;;;;3.21;74.74;95965.25;4990194;28;20209;-74
2023/12/16 03:48:55;;;;;;;1.17;0.87;;;;;;;3.22;74.18;95968.66;4990264;28;20219;-74
2023/12/16 03:51:22;;;;;;;1.00;0.90;;;;;;;3.15;74.90;95965.56;4967473;28;20273;-74
2023/12/16 03:53:47;;;;;;;1.00;1.00;;;;;;;3.28;74.68;95973.53;4976473;28;20238;-74
2023/12/16 03:56:13;;;;;;;1.00;0.90;;;;;;;3.10;74.38;95970.16;4979167;28;20219;-74
2023/12/16 03:58:38;;;;;;;2.87;0.87;;;;;;;3.23;74.30;95975.53;4989432;28;20191;-74
2023/12/16 04:01:13;;;;;;;0.77;0.60;;;;;;;3.13;74.66;95982.16;4985215;28;20230;-74
2023/12/16 04:03:41;;;;;;;0.70;0.70;;;;;;;3.09;74.64;95987.50;4986035;28;20250;-74
2023/12/16 04:06:14;;;;;;;0.70;0.70;;;;;;;3.17;74.01;95996.66;4974085;28;20227;-74
2023/12/16 04:08:40;;;;;;;0.77;0.77;;;;;;;3.26;74.59;95998.75;4961214;28;20311;-74
2023/12/16 04:11:06;;;;;;;0.90;0.90;;;;;;;3.21;74.37;95993.84;4962675;28;20282;-74
2023/12/16 04:13:34;;;;;;;1.87;1.40;;;;;;;3.12;74.45;96009.91;4968904;28;20259;-74
2023/12/16 04:16:00;;;;;;;2.03;1.03;;;;;;;3.21;74.17;96016.38;4962007;28;20219;-74
2023/12/16 04:18:26;;;;;;;0.80;0.80;;;;;;;3.17;74.17;96001.88;4968512;28;20323;-74
2023/12/16 04:20:51;;;;;;;1.30;1.07;;;;;;;3.19;74.14;96006.06;4966759;28;20355;-75
2023/12/16 04:23:17;;;;;;;1.23;0.90;;;;;;;3.17;74.25;95997.50;4966742;28;20231;-74
2023/12/16 04:25:42;;;;;;;2.03;1.00;;;;;;;3.14;74.57;96007.22;4960064;28;20192;-74
2023/12/16 04:28:08;;;;;;;1.33;0.80;;;;;;;3.25;74.21;96015.28;4966498;28;20224;-74
2023/12/16 04:30:33;;;;;;;0.70;0.70;;;;;;;3.23;73.91;96011.94;4966181;28;20227;-74
2023/12/16 04:32:59;;;;;;;0.50;0.50;;;;;;;3.28;73.68;96015.13;4964903;28;20315;-74
2023/12/16 04:35:25;;;;;;;0.90;0.77;;;;;;;3.31;73.30;96007.16;4969448;28;20227;-74
2023/12/16 04:37:50;;;;;;;1.30;0.90;;;;;;;3.19;73.74;96021.66;4974321;28;20198;-74
2023/12/16 04:40:15;;;;;;;0.70;0.70;;;;;;;3.14;73.11;96004.63;4973014;28;20333;-74
2023/12/16 04:42:42;;;;;;;0.60;0.60;;;;;;;3.16;72.44;96003.63;4965225;28;20224;-74
2023/12/16 04:45:08;;;;;;;0.77;0.77;;;;;;;3.10;72.84;96014.34;4966721;28;20236;-73
2023/12/16 04:47:36;;;;;;;1.73;0.90;;;;;;;3.11;73.76;96023.81;4954635;28;20231;-74
2023/12/16 04:50:01;;;;;;;0.90;0.90;;;;;;;3.17;73.24;96035.66;4973866;28;20200;-74
2023/12/16 04:52:27;;;;;;;0.83;0.80;;;;;;;3.24;73.06;96034.41;4973225;28;20252;-73
2023/12/16 04:54:52;;;;;;;0.77;0.70;;;;;;;3.13;73.17;96041.91;4987400;28;20309;-73
2023/12/16 04:57:18;;;;;;;1.10;1.00;;;;;;;3.00;73.52;96050.38;4985782;28;20252;-73
2023/12/16 04:59:43;;;;;;;0.70;0.70;;;;;;;3.15;72.92;96040.91;4971301;28;20274;-73
2023/12/16 05:02:08;;;;;;;0.93;0.73;;;;;;;3.07;73.41;96038.75;4978892;28;20212;-72
2023/12/16 05:04:34;;;;;;;0.80;0.80;;;;;;;3.02;73.48;96038.16;4966736;28;20191;-73
2023/12/16 05:06:59;;;;;;;0.73;0.70;;;;;;;3.18;72.70;96038.19;4969682;28;20223;-74
2023/12/16 05:09:24;;;;;;;1.67;1.00;;;;;;;3.14;73.40;96047.06;4966127;28;20311;-72
2023/12/16 05:11:51;;;;;;;1.20;1.10;;;;;;;3.04;72.86;96054.47;4960215;28;20220;-73
2023/12/16 05:14:16;;;;;;;1.27;1.17;;;;;;;3.03;73.31;96055.41;4971132;28;20231;-72
2023/12/16 05:16:41;;;;;;;3.13;1.50;;;;;;;2.96;73.47;96064.44;4968884;28;20201;-73
2023/12/16 05:19:07;;;;;;;1.20;1.10;;;;;;;2.87;73.32;96064.94;4966613;28;20220;-73
2023/12/16 05:21:32;;;;;;;1.57;1.40;;;;;;;2.86;74.10;96058.91;4964259;28;20307;-74
2023/12/16 05:23:58;;;;;;;1.60;1.30;;;;;;;2.93;74.52;96072.41;4968997;28;20227;-74
2023/12/16 05:26:23;;;;;;;1.20;1.10;;;;;;;3.00;73.80;96068.56;4967197;28;20310;-73
2023/12/16 05:28:49;;;;;;;1.73;1.63;;;;;;;2.94;73.88;96076.69;4981353;28;20190;-73
2023/12/16 05:31:14;;;;;;;1.43;1.00;;;;;;;2.99;73.52;96081.63;4985948;28;20222;-74
2023/12/16 05:33:39;;;;;;;1.77;1.60;;;;;;;3.07;73.53;96079.47;4966673;28;20228;-73
2023/12/16 05:36:06;;;;;;;2.63;2.40;;;;;;;2.86;73.52;96089.19;4983490;28;20223;-74
2023/12/16 05:38:32;;;;;;;1.77;1.23;;;;;;;2.76;73.39;96090.63;4980756;28;20224;-73
2023/12/16 05:40:57;;;;;;;1.07;0.93;;;;;;;2.78;73.59;96094.81;4967674;28;20187;-73
2023/12/16 05:43:23;;;;;;;0.70;0.70;;;;;;;2.87;72.62;96093.50;4962217;28;20254;-75
2023/12/16 05:45:48;;;;;;;1.10;1.00;;;;;;;2.92;71.71;96086.31;4967500;28;20315;-74
2023/12/16 05:48:14;;;;;;;1.20;1.10;;;;;;;2.86;72.26;96086.59;4965224;28;20220;-74
2023/12/16 05:50:39;;;;;;;1.20;1.10;;;;;;;2.92;72.83;96075.91;4979441;28;20297;-74
2023/12/16 05:53:06;;;;;;;1.13;1.03;;;;;;;3.00;72.50;96089.34;4966422;28;20199;-75
2023/12/16 05:55:33;;;;;;;1.10;1.00;;;;;;;3.06;72.57;96096.81;4982949;28;20234;-74
2023/12/16 05:57:58;;;;;;;2.27;1.10;;;;;;;3.05;72.98;96094.31;4967379;28;20222;-73
2023/12/16 06:00:24;;;;;;;1.80;1.47;;;;;;;2.86;72.76;96095.25;4974308;28;20302;-73
2023/12/16 06:02:49;;;;;;;1.30;1.20;;;;;;;2.96;73.00;96087.81;4976562;28;20239;-73
2023/12/16 06:05:15;;;;;;;1.40;1.30;;;;;;;3.02;72.74;96092.72;5004067;28;20246;-73
2023/12/16 06:07:40;;;;;;;2.30;1.80;;;;;;;2.89;73.83;96104.66;4986897;28;20194;-73
2023/12/16 06:10:06;;;;;;;3.27;1.50;;;;;;;2.78;74.13;96109.53;4993384;28;20252;-74
2023/12/16 06:12:32;;;;;;;1.40;1.30;;;;;;;2.79;73.73;96116.44;4981878;28;20245;-75
2023/12/16 06:14:57;;;;;;;2.40;1.47;;;;;;;2.95;73.84;96114.72;4985098;28;20215;-76
2023/12/16 06:17:22;;;;;;;2.03;1.47;;;;;;;3.06;73.09;96120.22;4983607;28;20220;-75
2023/12/16 06:19:48;;;;;;;3.03;1.97;;;;;;;2.97;73.27;96125.06;4988963;28;20215;-73
2023/12/16 06:22:14;;;;;;;2.97;1.80;;;;;;;2.95;72.98;96126.88;5002924;28;20287;-74
2023/12/16 06:24:40;;;;;;;2.30;1.63;;;;;;;3.14;72.33;96131.97;4971815;28;20212;-74
2023/12/16 06:27:06;;;;;;;1.70;1.43;;;;;;;3.09;71.68;96146.03;4964954;28;20310;-74
2023/12/16 06:29:31;;;;;;;1.97;1.07;;;;;;;3.06;71.71;96150.56;4974181;28;20231;-75
2023/12/16 06:31:57;;;;;;;1.10;1.00;;;;;;;3.12;71.52;96152.00;4989056;28;20191;-76
2023/12/16 06:34:22;;;;;;;1.20;0.80;;;;;;;3.07;71.89;96147.91;5006257;28;20190;-77
2023/12/16 06:36:48;;;;;;;1.00;0.90;;;;;;;3.03;71.52;96161.13;4989906;28;20306;-76
2023/12/16 06:39:13;;;;;;;0.90;0.70;;;;;;;2.99;72.11;96165.59;4985330;28;20282;-75
2023/12/16 06:41:39;;;;;;;0.80;0.80;;;;;;;3.00;71.71;96163.88;4993402;28;20223;-75
2023/12/16 06:44:04;;;;;;;1.37;1.00;;;;;;;3.09;71.26;96169.41;4987204;28;20188;-75
2023/12/16 06:46:30;;;;;;;1.73;1.10;;;;;;;3.03;71.68;96172.34;4990139;28;20185;-74
2023/12/16 06:48:55;;;;;;;1.70;1.07;;;;;;;3.13;71.74;96177.06;4990504;28;20223;-75
2023/12/16 06:51:20;;;;;;;1.23;1.10;;;;;;;3.06;71.53;96192.13;4987376;28;20258;-74
2023/12/16 06:53:46;;;;;;;1.93;1.30;;;;;;;2.89;72.02;96190.38;4984352;28;20232;-75
2023/12/16 06:56:12;;;;;;;0.87;0.87;;;;;;;2.91;72.31;96193.72;4982856;28;20290;-75
2023/12/16 06:58:37;;;;;;;1.40;1.30;;;;;;;2.96;71.62;96201.31;4971871;28;20183;-75
2023/12/16 07:01:03;;;;;;;1.83;1.40;;;;;;;2.87;72.27;96200.84;4985434;28;20241;-74
2023/12/16 07:03:29;;;;;;;1.43;1.20;;;;;;;2.89;71.17;96200.78;4987064;28;20234;-74
2023/12/16 07:05:55;;;;;;;1.80;1.47;;;;;;;2.62;72.79;96206.41;4986692;28;20235;-75
2023/12/16 07:08:20;;;;;;;1.53;1.43;;;;;;;2.60;73.34;96213.44;4985546;28;20215;-74
2023/12/16 07:10:46;;;;;;;2.13;1.70;;;;;;;2.63;73.23;96213.28;4969311;28;20213;-75
2023/12/16 07:13:11;;;;;;;1.30;1.20;;;;;;;2.78;73.18;96219.50;4967415;28;20726;-76
2023/12/16 07:15:38;;;;;;;1.40;1.30;;;;;;;2.79;73.19;96230.72;4969211;28;20258;-74
2023/12/16 07:18:03;;;;;;;1.53;1.20;;;;;;;2.86;73.13;96238.13;4974096;28;20227;-74
2023/12/16 07:20:29;;;;;;;1.40;1.30;;;;;;;2.89;72.58;96239.75;4971353;28;20289;-74
2023/12/16 07:22:55;;;;;;;1.03;0.93;;;;;;;2.95;72.65;96242.03;4984506;28;20199;-73
2023/12/16 07:25:21;;;;;;;2.13;1.93;;;;;;;2.87;72.53;96234.63;4985834;28;20322;-77
2023/12/16 07:27:47;;;;;;;3.87;2.67;;;;;;;2.92;72.73;96249.16;4984173;28;20294;-74
2023/12/16 07:30:13;;;;;;;2.40;1.60;;;;;;;2.91;72.91;96239.66;4976539;28;20307;-76
2023/12/16 07:32:40;;;;;;;1.80;1.60;;;;;;;3.02;72.59;96242.56;4975540;28;20254;-73
2023/12/16 07:35:08;;;;;;;1.50;1.40;;;;;;;2.93;73.12;96249.06;4989481;28;20205;-75
2023/12/16 07:37:34;;;;;;;2.37;1.43;;;;;;;2.85;72.55;96246.81;4986927;28;20273;-78
2023/12/16 07:39:59;;;;;;;1.63;1.53;;;;;;;3.05;72.30;96245.88;4964286;28;20287;-76
2023/12/16 07:42:25;;;;;;;1.70;1.40;;;;;;;3.11;72.11;96254.28;4979715;28;20295;-76
2023/12/16 07:44:50;;;;;;;2.23;1.30;;;;;;;2.96;72.74;96251.50;4977563;28;20230;-74
2023/12/16 07:47:16;;;;;;;1.93;1.57;;;;;;;2.90;73.14;96258.78;4971445;28;20249;-75
2023/12/16 07:49:42;;;;;;;2.90;1.50;;;;;;;2.89;73.67;96263.13;4984514;28;20187;-77
2023/12/16 07:52:08;;;;;;;2.13;1.50;;;;;;;2.95;73.63;96259.38;4985190;28;20246;-77
2023/12/16 07:54:33;;;;;;;1.90;1.53;;;;;;;3.09;73.04;96264.75;4984269;28;20287;-76
2023/12/16 07:56:59;;;;;;;2.53;1.70;;;;;;;2.85;73.06;96265.00;4978499;28;20231;-74
2023/12/16 07:59:25;;;;;;;2.33;1.77;;;;;;;2.86;73.29;96258.94;4981001;28;20278;-74
2023/12/16 08:01:52;;;;;;;2.53;2.03;;;;;;;2.96;73.26;96261.91;4986233;28;20222;-74
2023/12/16 08:04:18;;;;;;;1.70;1.60;;;;;;;2.97;73.17;96275.75;4982798;28;20231;-81
2023/12/16 08:06:44;;;;;;;2.30;1.70;;;;;;;2.88;73.35;96277.00;4983115;28;20354;-78
2023/12/16 08:09:09;;;;;;;3.13;1.60;;;;;;;2.85;73.56;96277.16;4983580;28;20215;-76
2023/12/16 08:11:35;;;;;;;3.10;1.40;;;;;;;2.92;73.16;96282.94;4981219;28;20235;-75
2023/12/16 08:14:00;;;;;;;1.30;1.20;;;;;;;3.05;73.17;96294.41;4970660;28;20184;-75
2023/12/16 08:16:26;;;;;;;2.03;1.30;;;;;;;3.01;72.93;96296.28;4996987;28;20233;-75
2023/12/16 08:18:51;;;;;;;1.73;1.10;;;;;;;3.03;73.16;96294.47;4990679;28;20226;-78
2023/12/16 08:21:20;;;;;;;1.63;1.20;;;;;;;3.09;72.33;96295.94;4986195;28;20231;-76
2023/12/16 08:23:46;;;;;;;2.83;2.37;;;;;;;2.79;73.07;96293.06;4983071;28;20241;-77
2023/12/16 08:26:11;;;;;;;1.90;1.57;;;;;;;2.96;72.71;96298.28;4987109;28;20188;-75
2023/12/16 08:28:37;;;;;;;3.00;1.30;;;;;;;3.06;72.52;96304.72;4969978;28;20184;-75
2023/12/16 08:31:03;;;;;;;1.60;1.27;;;;;;;3.12;71.70;96310.53;4984205;28;20228;-74
2023/12/16 08:33:29;;;;;;;1.90;1.47;;;;;;;3.12;72.06;96300.13;4985493;28;20254;-74
2023/12/16 08:35:56;;;;;;;1.90;1.43;;;;;;;2.95;72.50;96304.41;4989562;28;20223;-75
2023/12/16 08:38:22;;;;;;;1.93;1.00;;;;;;;2.94;72.34;96309.66;4990495;28;20322;-73
2023/12/16 08:40:47;;;;;;;1.23;1.03;;;;;;;3.14;72.15;96308.69;4981555;28;20190;-76
2023/12/16 08:43:13;;;;;;;1.47;1.10;;;;;;;3.18;71.47;96302.41;4984518;28;20270;-77
2023/12/16 08:45:39;;;;;;;1.10;1.00;;;;;;;2.92;71.98;96296.75;4972962;28;20263;-76
2023/12/16 08:48:04;;;;;;;1.07;0.83;;;;;;;2.88;71.95;96298.63;4980807;28;20218;-77
2023/12/16 08:50:30;;;;;;;1.60;0.97;;;;;;;3.08;71.82;96297.69;4990225;28;20223;-77
2023/12/16 08:52:55;;;;;;;1.00;0.90;;;;;;;3.17;71.23;96292.97;4993058;28;20222;-76
2023/12/16 08:55:24;;;;;;;1.43;0.90;;;;;;;3.17;70.91;96298.16;5003291;28;20257;-76
2023/12/16 08:57:50;;;;;;;0.87;0.87;;;;;;;3.39;70.66;96309.16;4987128;28;20235;-75
2023/12/16 09:00:15;;;;;;;1.50;1.07;;;;;;;3.14;71.47;96301.75;4985258;28;20291;-74
2023/12/16 09:02:41;;;;;;;1.80;0.90;;;;;;;3.28;70.90;96306.25;4992799;28;20319;-76
2023/12/16 09:05:07;;;;;;;0.83;0.80;;;;;;;3.23;71.22;96293.47;4983470;28;20241;-74
2023/12/16 09:07:34;;;;;;;1.60;1.20;;;;;;;3.37;71.11;96299.75;4985393;28;20278;-75
2023/12/16 09:09:59;;;;;;;1.47;1.13;;;;;;;3.30;71.00;96288.84;4985621;28;20250;-75
2023/12/16 09:12:25;;;;;;;1.30;1.20;;;;;;;3.51;70.34;96290.34;4985211;28;20228;-75
2023/12/16 09:14:50;;;;;;;1.37;0.93;;;;;;;3.39;70.06;96301.38;4982854;28;20227;-74
2023/12/16 09:17:15;;;;;;;0.70;0.70;;;;;;;3.31;69.94;96285.31;4986834;28;20230;-77
2023/12/16 09:19:41;;;;;;;1.10;0.87;;;;;;;3.32;69.73;96287.00;4988717;28;20229;-75
2023/12/16 09:22:06;;;;;;;1.67;1.27;;;;;;;3.49;68.98;96283.56;4991748;28;20227;-74
2023/12/16 09:24:33;;;;;;;2.20;1.97;;;;;;;3.42;70.00;96283.03;4986273;28;20230;-74
2023/12/16 09:26:59;;;;;;;3.17;2.93;;;;;;;3.58;69.42;96277.03;4993721;28;20256;-74
2023/12/16 09:29:25;;;;;;;2.83;1.97;;;;;;;3.57;69.96;96285.78;4994977;28;20222;-73
2023/12/16 09:31:51;;;;;;;2.47;1.90;;;;;;;3.54;69.87;96276.34;4985514;28;20280;-74
2023/12/16 09:34:16;;;;;;;1.97;1.57;;;;;;;3.58;70.38;96277.03;4976490;28;20255;-75
2023/12/16 09:36:42;;;;;;;1.20;1.03;;;;;;;3.73;69.03;96279.69;4991124;28;20242;-76
2023/12/16 09:39:10;;;;;;;1.63;1.30;;;;;;;3.84;68.44;96289.53;4994545;28;20238;-75
2023/12/16 09:41:42;;;;;;;1.53;1.30;;;;;;;3.69;68.97;96279.94;4987332;28;20282;-76
2023/12/16 09:44:08;;;;;;;1.30;1.20;;;;;;;3.72;68.02;96275.41;4987482;28;20218;-74
2023/12/16 09:46:36;;;;;;;3.13;1.77;;;;;;;3.62;69.92;96276.81;4984153;28;20197;-76
2023/12/16 09:49:05;;;;;;;1.20;1.10;;;;;;;3.84;69.48;96284.34;4992741;28;20229;-73
2023/12/16 09:51:30;;;;;;;1.50;1.40;;;;;;;3.81;69.62;96279.31;4993640;28;20223;-76
2023/12/16 09:53:56;;;;;;;1.73;1.17;;;;;;;4.18;67.92;96279.97;4984846;28;20289;-75
2023/12/16 09:56:22;;;;;;;1.30;1.20;;;;;;;3.86;69.06;96282.50;4980327;28;20302;-76
2023/12/16 09:58:51;;;;;;;1.73;1.03;;;;;;;3.69;68.59;96285.16;4969764;28;20283;-78
2023/12/16 10:01:17;;;;;;;1.57;1.20;;;;;;;3.92;66.35;96283.94;4966903;28;20262;-74
2023/12/16 10:03:45;;;;;;;2.17;1.13;;;;;;;4.05;67.04;96281.53;4984561;28;20261;-74
2023/12/16 10:06:11;;;;;;;1.50;1.30;;;;;;;3.83;68.53;96282.66;4990460;28;20235;-73
2023/12/16 10:08:38;;;;;;;1.10;1.00;;;;;;;3.67;67.65;96279.19;4984742;28;20301;-77
2023/12/16 10:11:04;;;;;;;1.43;1.00;;;;;;;3.96;66.91;96278.50;4985149;28;20191;-75
2023/12/16 10:13:32;;;;;;;1.50;1.13;;;;;;;3.97;66.70;96284.53;4970662;28;20195;-74
2023/12/16 10:15:59;;;;;;;1.33;1.20;;;;;;;3.89;67.50;96282.34;4969059;28;20254;-73
2023/12/16 10:18:27;;;;;;;1.37;1.00;;;;;;;3.88;68.52;96279.84;4988661;28;20225;-72
2023/12/16 10:20:55;;;;;;;1.53;1.10;;;;;;;3.84;67.37;96270.50;4985879;28;20374;-74
2023/12/16 10:23:22;;;;;;;1.17;1.07;;;;;;;3.98;67.11;96268.88;4986387;28;20258;-71
2023/12/16 10:25:48;;;;;;;1.50;1.10;;;;;;;3.89;67.55;96282.34;4985849;28;20187;-71
2023/12/16 10:28:13;;;;;;;1.33;1.10;;;;;;;3.97;66.57;96269.78;4968751;28;20223;-76
2023/12/16 10:30:39;;;;;;;1.40;1.30;;;;;;;3.96;67.97;96268.09;4976893;28;20333;-72
2023/12/16 10:33:08;;;;;;;1.20;1.10;;;;;;;3.84;66.58;96262.69;4980965;28;20228;-73
2023/12/16 10:35:33;;;;;;;1.30;1.20;;;;;;;3.86;67.30;96272.09;4985485;28;20226;-71
2023/12/16 10:37:59;;;;;;;1.33;1.07;;;;;;;4.04;66.20;96269.47;4990603;28;20188;-73
2023/12/16 10:40:26;;;;;;;1.47;1.17;;;;;;;3.96;66.43;96268.09;4992945;28;20190;-73
2023/12/16 10:42:51;;;;;;;1.47;1.30;;;;;;;4.04;66.57;96270.31;4985397;28;20227;-75
2023/12/16 10:45:17;;;;;;;1.83;1.30;;;;;;;4.11;66.93;96278.63;4985461;28;20235;-72
2023/12/16 10:47:45;;;;;;;2.30;1.27;;;;;;;4.27;65.33;96279.47;4984338;28;20226;-77
2023/12/16 10:50:12;;;;;;;3.03;1.20;;;;;;;4.20;66.25;96275.53;4986798;28;20210;-73
2023/12/16 10:52:45;;;;;;;2.50;1.40;;;;;;;4.33;64.72;96273.94;4983979;28;20187;-76
2023/12/16 10:55:23;;;;;;;1.33;1.23;;;;;;;4.24;65.80;96271.81;4999716;28;20215;-74
2023/12/16 10:58:11;;;;;;;0.97;0.97;;;;;;;4.29;65.88;96276.78;4983993;28;20255;-72
2023/12/16 11:00:38;;;;;;;1.70;0.90;;;;;;;4.59;63.60;96266.47;4984313;28;20313;-70
2023/12/16 11:03:07;;;;;;;1.43;1.30;;;;;;;4.42;63.96;96276.03;4984884;28;20231;-75
2023/12/16 11:05:43;;;;;;;2.13;1.30;;;;;;;4.46;64.57;96278.47;5008618;28;20242;-73
2023/12/16 11:08:08;;;;;;;2.60;1.50;;;;;;;4.59;64.41;96274.28;4986950;28;20182;-71
2023/12/16 11:10:35;;;;;;;2.23;2.03;;;;;;;4.60;63.62;96274.22;4984277;28;20167;-73
2023/12/16 11:13:02;;;;;;;2.07;1.53;;;;;;;4.64;62.89;96269.66;4972914;28;20310;-73
2023/12/16 11:15:30;;;;;;;1.53;1.43;;;;;;;4.41;63.61;96269.16;4981967;28;20238;-76
2023/12/16 11:18:07;;;;;;;3.33;1.50;;;;;;;4.54;64.39;96273.69;4980239;28;20234;-76
2023/12/16 11:20:44;;;;;;;1.87;1.50;;;;;;;4.43;63.71;96269.91;4988622;28;20227;-75
2023/12/16 11:23:10;;;;;;;2.33;1.80;;;;;;;4.56;64.49;96262.25;4991217;28;20217;-75
2023/12/16 11:25:36;;;;;;;2.00;1.70;;;;;;;4.55;63.86;96258.00;4984149;28;20186;-73
2023/12/16 11:28:05;;;;;;;2.03;1.67;;;;;;;4.66;64.66;96260.00;4987179;28;20302;-77
2023/12/16 11:30:32;;;;;;;1.87;1.50;;;;;;;4.63;63.65;96262.78;4984082;28;20238;-78
2023/12/16 11:32:59;;;;;;;3.47;1.90;;;;;;;4.67;63.23;96264.28;4984803;28;20218;-76
2023/12/16 11:35:37;;;;;;;3.27;2.30;;;;;;;4.84;63.15;96258.16;4986670;28;20232;-69